sensor_id;sensor_type;location;lat;lon;timestamp;pressure;altitude;pressure_sealevel;temperature;humidity
3524;BME280;1776;53.330;11.498;2022-09-27T00:00:13;53998.47;;;-147.39;68.30
3524;BME280;1776;53.330;11.498;2022-09-27T00:02:38;53965.69;;;-147.39;67.49
3524;BME280;1776;53.330;11.498;2022-09-27T00:05:04;53986.19;;;-147.39;68.02
3524;BME280;1776;53.330;11.498;2022-09-27T00:07:29;53982.06;;;-147.39;68.08
3524;BME280;1776;53.330;11.498;2022-09-27T00:09:54;53990.28;;;-147.39;67.52
3524;BME280;1776;53.330;11.498;2022-09-27T00:12:20;53980.03;;;-147.39;67.66
3524;BME280;1776;53.330;11.498;2022-09-27T00:14:45;53969.78;;;-147.39;67.74
3524;BME280;1776;53.330;11.498;2022-09-27T00:17:10;53957.50;;;-147.39;67.88
3524;BME280;1776;53.330;11.498;2022-09-27T00:19:35;53994.38;;;-147.39;67.50
3524;BME280;1776;53.330;11.498;2022-09-27T00:22:00;54086.56;;;-147.39;67.17
3524;BME280;1776;53.330;11.498;2022-09-27T00:24:26;53984.13;;;-147.39;67.12
3524;BME280;1776;53.330;11.498;2022-09-27T00:26:51;53977.97;;;-147.39;66.70
3524;BME280;1776;53.330;11.498;2022-09-27T00:29:17;53992.31;;;-147.39;66.79
3524;BME280;1776;53.330;11.498;2022-09-27T00:31:43;53943.16;;;-147.39;66.67
3524;BME280;1776;53.330;11.498;2022-09-27T00:34:17;53953.41;;;-147.39;66.59
3524;BME280;1776;53.330;11.498;2022-09-27T00:36:42;53971.84;;;-147.39;67.23
3524;BME280;1776;53.330;11.498;2022-09-27T00:39:08;53955.44;;;-147.39;66.88
3524;BME280;1776;53.330;11.498;2022-09-27T00:41:34;53969.78;;;-147.39;66.80
3524;BME280;1776;53.330;11.498;2022-09-27T00:44:04;53992.31;;;-147.39;66.63
3524;BME280;1776;53.330;11.498;2022-09-27T00:46:49;53986.19;;;-147.39;66.67
3524;BME280;1776;53.330;11.498;2022-09-27T00:49:24;53965.69;;;-147.39;67.65
3524;BME280;1776;53.330;11.498;2022-09-27T00:52:16;54141.88;;;-147.39;67.78
3524;BME280;1776;53.330;11.498;2022-09-27T00:54:47;53990.28;;;-147.39;68.28
3524;BME280;1776;53.330;11.498;2022-09-27T00:57:15;53994.38;;;-147.39;68.42
3524;BME280;1776;53.330;11.498;2022-09-27T00:59:50;54010.75;;;-147.39;69.04
3524;BME280;1776;53.330;11.498;2022-09-27T01:02:18;53955.44;;;-147.39;69.08
3524;BME280;1776;53.330;11.498;2022-09-27T01:04:44;53990.28;;;-147.39;68.90
3524;BME280;1776;53.330;11.498;2022-09-27T01:07:11;53965.69;;;-147.39;69.19
3524;BME280;1776;53.330;11.498;2022-09-27T01:09:37;53988.22;;;-147.39;69.15
3524;BME280;1776;53.330;11.498;2022-09-27T01:15:12;53971.84;;;-147.39;69.67
3524;BME280;1776;53.330;11.498;2022-09-27T01:17:55;54008.72;;;-147.39;69.59
3524;BME280;1776;53.330;11.498;2022-09-27T01:34:58;54004.63;;;-147.39;71.69
3524;BME280;1776;53.330;11.498;2022-09-27T01:37:39;53971.84;;;-147.39;72.03
3524;BME280;1776;53.330;11.498;2022-09-27T01:40:16;53982.06;;;-147.39;72.35
3524;BME280;1776;53.330;11.498;2022-09-27T01:43:05;53988.22;;;-147.39;72.21
3524;BME280;1776;53.330;11.498;2022-09-27T01:45:37;54174.66;;;-147.39;72.44
3524;BME280;1776;53.330;11.498;2022-09-27T01:48:24;54018.97;;;-147.39;71.93
3524;BME280;1776;53.330;11.498;2022-09-27T01:51:08;54004.63;;;-147.39;72.16
3524;BME280;1776;53.330;11.498;2022-09-27T01:53:43;53998.47;;;-147.39;72.78
3524;BME280;1776;53.330;11.498;2022-09-27T01:56:19;54014.84;;;-147.39;72.35
3524;BME280;1776;53.330;11.498;2022-09-27T02:01:38;53994.38;;;-147.39;72.12
3524;BME280;1776;53.330;11.498;2022-09-27T02:04:07;53986.19;;;-147.39;72.01
3524;BME280;1776;53.330;11.498;2022-09-27T02:06:39;54008.72;;;-147.39;71.49
3524;BME280;1776;53.330;11.498;2022-09-27T02:09:13;53988.22;;;-147.39;71.27
3524;BME280;1776;53.330;11.498;2022-09-27T02:11:45;53982.06;;;-147.39;71.33
3524;BME280;1776;53.330;11.498;2022-09-27T02:14:33;53984.13;;;-147.39;70.75
3524;BME280;1776;53.330;11.498;2022-09-27T02:17:09;54018.97;;;-147.39;71.36
3524;BME280;1776;53.330;11.498;2022-09-27T02:19:51;53998.47;;;-147.39;71.08
3524;BME280;1776;53.330;11.498;2022-09-27T02:22:29;54002.56;;;-147.39;71.32
3524;BME280;1776;53.330;11.498;2022-09-27T02:24:59;53977.97;;;-147.39;71.20
3524;BME280;1776;53.330;11.498;2022-09-27T02:27:33;53982.06;;;-147.39;71.80
3524;BME280;1776;53.330;11.498;2022-09-27T02:30:09;53990.28;;;-147.39;72.12
3524;BME280;1776;53.330;11.498;2022-09-27T02:32:36;54014.84;;;-147.39;72.18
3524;BME280;1776;53.330;11.498;2022-09-27T02:35:07;54084.53;;;-147.39;72.51
3524;BME280;1776;53.330;11.498;2022-09-27T02:37:34;54027.16;;;-147.39;72.62
3524;BME280;1776;53.330;11.498;2022-09-27T02:39:59;53996.41;;;-147.39;72.77
3524;BME280;1776;53.330;11.498;2022-09-27T02:42:25;54023.06;;;-147.39;72.84
3524;BME280;1776;53.330;11.498;2022-09-27T02:44:51;54139.84;;;-147.39;72.99
3524;BME280;1776;53.330;11.498;2022-09-27T02:50:45;54025.09;;;-147.39;73.06
3524;BME280;1776;53.330;11.498;2022-09-27T02:53:43;54027.16;;;-147.39;73.27
3524;BME280;1776;53.330;11.498;2022-09-27T02:56:37;53986.19;;;-147.39;73.07
3524;BME280;1776;53.330;11.498;2022-09-27T03:02:12;53988.22;;;-147.39;73.12
3524;BME280;1776;53.330;11.498;2022-09-27T03:04:43;53977.97;;;-147.39;73.60
3524;BME280;1776;53.330;11.498;2022-09-27T03:07:09;54002.56;;;-147.39;73.92
3524;BME280;1776;53.330;11.498;2022-09-27T03:09:48;53994.38;;;-147.39;74.22
3524;BME280;1776;53.330;11.498;2022-09-27T03:12:15;54012.81;;;-147.39;74.40
3524;BME280;1776;53.330;11.498;2022-09-27T03:14:47;53992.31;;;-147.39;74.76
3524;BME280;1776;53.330;11.498;2022-09-27T03:17:13;54016.91;;;-147.39;74.70
3524;BME280;1776;53.330;11.498;2022-09-27T03:19:38;54010.75;;;-147.39;75.18
3524;BME280;1776;53.330;11.498;2022-09-27T03:22:03;54010.75;;;-147.39;74.95
3524;BME280;1776;53.330;11.498;2022-09-27T03:24:28;54016.91;;;-147.39;74.61
3524;BME280;1776;53.330;11.498;2022-09-27T03:26:54;54021.00;;;-147.39;74.42
3524;BME280;1776;53.330;11.498;2022-09-27T03:29:19;54018.97;;;-147.39;74.19
3524;BME280;1776;53.330;11.498;2022-09-27T03:31:44;53984.13;;;-147.39;73.93
3524;BME280;1776;53.330;11.498;2022-09-27T03:34:09;53994.38;;;-147.39;73.93
3524;BME280;1776;53.330;11.498;2022-09-27T03:36:35;54006.66;;;-147.39;73.64
3524;BME280;1776;53.330;11.498;2022-09-27T03:39:00;53998.47;;;-147.39;73.30
3524;BME280;1776;53.330;11.498;2022-09-27T03:41:25;53982.06;;;-147.39;72.48
3524;BME280;1776;53.330;11.498;2022-09-27T03:43:50;53977.97;;;-147.39;72.05
3524;BME280;1776;53.330;11.498;2022-09-27T03:46:16;53977.97;;;-147.39;71.97
3524;BME280;1776;53.330;11.498;2022-09-27T03:48:41;53959.53;;;-147.39;72.25
3524;BME280;1776;53.330;11.498;2022-09-27T03:51:07;53961.59;;;-147.39;71.88
3524;BME280;1776;53.330;11.498;2022-09-27T03:53:32;53990.28;;;-147.39;72.39
3524;BME280;1776;53.330;11.498;2022-09-27T03:55:57;54012.81;;;-147.39;71.98
3524;BME280;1776;53.330;11.498;2022-09-27T03:58:23;53961.59;;;-147.39;71.60
3524;BME280;1776;53.330;11.498;2022-09-27T04:00:48;53996.41;;;-147.39;71.38
3524;BME280;1776;53.330;11.498;2022-09-27T04:03:13;53990.28;;;-147.39;71.70
3524;BME280;1776;53.330;11.498;2022-09-27T04:05:38;54006.66;;;-147.39;71.48
3524;BME280;1776;53.330;11.498;2022-09-27T04:08:04;53969.78;;;-147.39;71.83
3524;BME280;1776;53.330;11.498;2022-09-27T04:10:30;53988.22;;;-147.39;71.67
3524;BME280;1776;53.330;11.498;2022-09-27T04:12:55;53973.88;;;-147.39;72.28
3524;BME280;1776;53.330;11.498;2022-09-27T04:15:21;53973.88;;;-147.39;73.42
3524;BME280;1776;53.330;11.498;2022-09-27T04:17:47;53969.78;;;-147.39;73.62
3524;BME280;1776;53.330;11.498;2022-09-27T04:20:12;53998.47;;;-147.39;74.21
3524;BME280;1776;53.330;11.498;2022-09-27T04:22:39;53988.22;;;-147.39;74.06
3524;BME280;1776;53.330;11.498;2022-09-27T04:25:06;53971.84;;;-147.39;73.96
3524;BME280;1776;53.330;11.498;2022-09-27T04:27:31;54010.75;;;-147.39;74.82
3524;BME280;1776;53.330;11.498;2022-09-27T04:29:56;54043.53;;;-147.39;75.74
3524;BME280;1776;53.330;11.498;2022-09-27T04:32:22;54016.91;;;-147.39;76.05
3524;BME280;1776;53.330;11.498;2022-09-27T04:34:47;53953.41;;;-147.39;76.00
3524;BME280;1776;53.330;11.498;2022-09-27T04:37:31;53996.41;;;-147.39;75.54
3524;BME280;1776;53.330;11.498;2022-09-27T04:39:57;53998.47;;;-147.39;75.19
3524;BME280;1776;53.330;11.498;2022-09-27T04:42:22;53996.41;;;-147.39;75.20
3524;BME280;1776;53.330;11.498;2022-09-27T04:44:47;54008.72;;;-147.39;75.60
3524;BME280;1776;53.330;11.498;2022-09-27T04:47:12;53982.06;;;-147.39;76.17
3524;BME280;1776;53.330;11.498;2022-09-27T04:49:38;53994.38;;;-147.39;76.02
3524;BME280;1776;53.330;11.498;2022-09-27T04:52:03;53982.06;;;-147.39;75.63
3524;BME280;1776;53.330;11.498;2022-09-27T04:54:30;54004.63;;;-147.39;76.01
3524;BME280;1776;53.330;11.498;2022-09-27T04:56:55;54002.56;;;-147.39;75.71
3524;BME280;1776;53.330;11.498;2022-09-27T04:59:20;54016.91;;;-147.39;75.98
3524;BME280;1776;53.330;11.498;2022-09-27T05:01:46;54031.25;;;-147.39;76.31
3524;BME280;1776;53.330;11.498;2022-09-27T05:04:11;53986.19;;;-147.39;76.29
3524;BME280;1776;53.330;11.498;2022-09-27T05:06:36;53977.97;;;-147.39;76.69
3524;BME280;1776;53.330;11.498;2022-09-27T05:09:02;54055.84;;;-147.39;76.81
3524;BME280;1776;53.330;11.498;2022-09-27T05:11:27;54008.72;;;-147.39;76.86
3524;BME280;1776;53.330;11.498;2022-09-27T05:13:52;54021.00;;;-147.39;77.28
3524;BME280;1776;53.330;11.498;2022-09-27T05:16:18;54021.00;;;-147.39;77.59
3524;BME280;1776;53.330;11.498;2022-09-27T05:18:44;54088.63;;;-147.39;78.06
3524;BME280;1776;53.330;11.498;2022-09-27T05:21:09;54012.81;;;-147.39;78.18
3524;BME280;1776;53.330;11.498;2022-09-27T05:23:34;54010.75;;;-147.39;78.42
3524;BME280;1776;53.330;11.498;2022-09-27T05:26:06;54041.50;;;-147.39;78.92
3524;BME280;1776;53.330;11.498;2022-09-27T05:28:32;53996.41;;;-147.39;79.20
3524;BME280;1776;53.330;11.498;2022-09-27T05:31:02;53992.31;;;-147.39;79.31
3524;BME280;1776;53.330;11.498;2022-09-27T05:33:27;54068.13;;;-147.39;79.54
3524;BME280;1776;53.330;11.498;2022-09-27T05:35:56;54043.53;;;-147.39;79.69
3524;BME280;1776;53.330;11.498;2022-09-27T05:38:22;54031.25;;;-147.39;79.61
3524;BME280;1776;53.330;11.498;2022-09-27T05:40:48;54000.50;;;-147.39;79.78
3524;BME280;1776;53.330;11.498;2022-09-27T05:43:15;53984.13;;;-147.39;79.54
3524;BME280;1776;53.330;11.498;2022-09-27T05:45:40;54039.44;;;-147.39;79.49
3524;BME280;1776;53.330;11.498;2022-09-27T05:48:07;54025.09;;;-147.39;79.57
3524;BME280;1776;53.330;11.498;2022-09-27T05:50:33;54047.63;;;-147.39;79.61
3524;BME280;1776;53.330;11.498;2022-09-27T05:52:58;54006.66;;;-147.39;79.69
3524;BME280;1776;53.330;11.498;2022-09-27T05:55:23;53994.38;;;-147.39;79.79
3524;BME280;1776;53.330;11.498;2022-09-27T05:58:00;54016.91;;;-147.39;79.98
3524;BME280;1776;53.330;11.498;2022-09-27T06:00:26;54027.16;;;-147.39;79.83
3524;BME280;1776;53.330;11.498;2022-09-27T06:03:03;54029.19;;;-147.39;79.80
3524;BME280;1776;53.330;11.498;2022-09-27T06:05:30;54027.16;;;-147.39;80.14
3524;BME280;1776;53.330;11.498;2022-09-27T06:08:00;54018.97;;;-147.39;79.47
3524;BME280;1776;53.330;11.498;2022-09-27T06:10:26;54025.09;;;-147.39;79.79
3524;BME280;1776;53.330;11.498;2022-09-27T06:12:52;53992.31;;;-147.39;80.18
3524;BME280;1776;53.330;11.498;2022-09-27T06:15:18;54074.28;;;-147.39;79.85
3524;BME280;1776;53.330;11.498;2022-09-27T06:17:43;53990.28;;;-147.39;79.95
3524;BME280;1776;53.330;11.498;2022-09-27T06:20:09;54006.66;;;-147.39;80.04
3524;BME280;1776;53.330;11.498;2022-09-27T06:22:34;54018.97;;;-147.39;80.06
3524;BME280;1776;53.330;11.498;2022-09-27T06:25:01;54010.75;;;-147.39;80.18
3524;BME280;1776;53.330;11.498;2022-09-27T06:27:28;53982.06;;;-147.39;80.44
3524;BME280;1776;53.330;11.498;2022-09-27T06:29:53;54043.53;;;-147.39;80.37
3524;BME280;1776;53.330;11.498;2022-09-27T06:32:19;54012.81;;;-147.39;80.32
3524;BME280;1776;53.330;11.498;2022-09-27T06:34:45;54016.91;;;-147.39;80.16
3524;BME280;1776;53.330;11.498;2022-09-27T06:37:10;54014.84;;;-147.39;80.46
3524;BME280;1776;53.330;11.498;2022-09-27T06:39:36;54006.66;;;-147.39;80.47
3524;BME280;1776;53.330;11.498;2022-09-27T06:42:01;53971.84;;;-147.39;80.22
3524;BME280;1776;53.330;11.498;2022-09-27T06:44:27;54027.16;;;-147.39;80.06
3524;BME280;1776;53.330;11.498;2022-09-27T06:46:52;54008.72;;;-147.39;80.06
3524;BME280;1776;53.330;11.498;2022-09-27T06:49:22;53988.22;;;-147.39;79.93
3524;BME280;1776;53.330;11.498;2022-09-27T06:51:49;53994.38;;;-147.39;80.25
3524;BME280;1776;53.330;11.498;2022-09-27T06:54:14;54045.59;;;-147.39;80.56
3524;BME280;1776;53.330;11.498;2022-09-27T06:56:39;53971.84;;;-147.39;80.43
3524;BME280;1776;53.330;11.498;2022-09-27T06:59:05;54041.50;;;-147.39;80.47
3524;BME280;1776;53.330;11.498;2022-09-27T07:01:49;54008.72;;;-147.39;80.52
3524;BME280;1776;53.330;11.498;2022-09-27T07:04:17;54029.19;;;-147.39;81.11
3524;BME280;1776;53.330;11.498;2022-09-27T07:06:43;53990.28;;;-147.39;80.71
3524;BME280;1776;53.330;11.498;2022-09-27T07:09:08;54025.09;;;-147.39;80.83
3524;BME280;1776;53.330;11.498;2022-09-27T07:11:33;53996.41;;;-147.39;80.41
3524;BME280;1776;53.330;11.498;2022-09-27T07:14:01;53955.44;;;-147.39;80.54
3524;BME280;1776;53.330;11.498;2022-09-27T07:16:28;54002.56;;;-147.39;80.44
3524;BME280;1776;53.330;11.498;2022-09-27T07:18:53;54016.91;;;-147.39;80.50
3524;BME280;1776;53.330;11.498;2022-09-27T07:21:19;54004.63;;;-147.39;80.71
3524;BME280;1776;53.330;11.498;2022-09-27T07:23:44;54016.91;;;-147.39;80.64
3524;BME280;1776;53.330;11.498;2022-09-27T07:26:10;54002.56;;;-147.39;80.47
3524;BME280;1776;53.330;11.498;2022-09-27T07:28:36;53990.28;;;-147.39;80.40
3524;BME280;1776;53.330;11.498;2022-09-27T07:31:02;54029.19;;;-147.39;80.20
3524;BME280;1776;53.330;11.498;2022-09-27T07:33:30;54000.50;;;-147.39;80.09
3524;BME280;1776;53.330;11.498;2022-09-27T07:35:55;54043.53;;;-147.39;79.93
3524;BME280;1776;53.330;11.498;2022-09-27T07:38:20;53988.22;;;-147.39;80.15
3524;BME280;1776;53.330;11.498;2022-09-27T07:40:46;54000.50;;;-147.39;80.03
3524;BME280;1776;53.330;11.498;2022-09-27T07:43:12;53992.31;;;-147.39;79.64
3524;BME280;1776;53.330;11.498;2022-09-27T07:45:37;54006.66;;;-147.39;79.62
3524;BME280;1776;53.330;11.498;2022-09-27T07:48:07;54029.19;;;-147.39;79.59
3524;BME280;1776;53.330;11.498;2022-09-27T07:50:33;54002.56;;;-147.39;79.44
3524;BME280;1776;53.330;11.498;2022-09-27T07:52:59;53955.44;;;-147.39;79.21
3524;BME280;1776;53.330;11.498;2022-09-27T07:55:24;53992.31;;;-147.39;79.30
3524;BME280;1776;53.330;11.498;2022-09-27T07:57:49;53996.41;;;-147.39;79.18
3524;BME280;1776;53.330;11.498;2022-09-27T08:00:17;53990.28;;;-147.39;79.17
3524;BME280;1776;53.330;11.498;2022-09-27T08:02:45;53988.22;;;-147.39;78.66
3524;BME280;1776;53.330;11.498;2022-09-27T08:05:11;53965.69;;;-147.39;78.74
3524;BME280;1776;53.330;11.498;2022-09-27T08:07:37;54025.09;;;-147.39;78.45
3524;BME280;1776;53.330;11.498;2022-09-27T08:10:04;53984.13;;;-147.39;78.94
3524;BME280;1776;53.330;11.498;2022-09-27T08:12:30;54008.72;;;-147.39;78.99
3524;BME280;1776;53.330;11.498;2022-09-27T08:14:55;53982.06;;;-147.39;78.78
3524;BME280;1776;53.330;11.498;2022-09-27T08:17:28;53994.38;;;-147.39;78.66
3524;BME280;1776;53.330;11.498;2022-09-27T08:19:53;53998.47;;;-147.39;78.61
3524;BME280;1776;53.330;11.498;2022-09-27T08:22:19;53969.78;;;-147.39;78.15
3524;BME280;1776;53.330;11.498;2022-09-27T08:24:45;54029.19;;;-147.39;78.03
3524;BME280;1776;53.330;11.498;2022-09-27T08:27:11;54008.72;;;-147.39;78.07
3524;BME280;1776;53.330;11.498;2022-09-27T08:29:36;54002.56;;;-147.39;77.90
3524;BME280;1776;53.330;11.498;2022-09-27T08:32:05;53990.28;;;-147.39;78.01
3524;BME280;1776;53.330;11.498;2022-09-27T08:34:31;53969.78;;;-147.39;77.30
3524;BME280;1776;53.330;11.498;2022-09-27T08:36:56;53996.41;;;-147.39;77.37
3524;BME280;1776;53.330;11.498;2022-09-27T08:39:21;53996.41;;;-147.39;77.01
3524;BME280;1776;53.330;11.498;2022-09-27T08:42:12;53998.47;;;-147.39;76.98
3524;BME280;1776;53.330;11.498;2022-09-27T08:44:53;53980.03;;;-147.39;76.99
3524;BME280;1776;53.330;11.498;2022-09-27T08:47:28;54002.56;;;-147.39;77.09
3524;BME280;1776;53.330;11.498;2022-09-27T08:50:02;53988.22;;;-147.39;76.44
3524;BME280;1776;53.330;11.498;2022-09-27T08:52:36;53994.38;;;-147.39;75.99
3524;BME280;1776;53.330;11.498;2022-09-27T08:55:15;53971.84;;;-147.39;75.98
3524;BME280;1776;53.330;11.498;2022-09-27T08:57:49;53998.47;;;-147.39;75.84
3524;BME280;1776;53.330;11.498;2022-09-27T09:00:18;53984.13;;;-147.39;75.90
3524;BME280;1776;53.330;11.498;2022-09-27T09:02:43;53959.53;;;-147.39;75.98
3524;BME280;1776;53.330;11.498;2022-09-27T09:05:11;53965.69;;;-147.39;75.48
3524;BME280;1776;53.330;11.498;2022-09-27T09:08:16;53953.41;;;-147.39;75.62
3524;BME280;1776;53.330;11.498;2022-09-27T09:11:20;53967.72;;;-147.39;75.33
3524;BME280;1776;53.330;11.498;2022-09-27T09:15:05;53996.41;;;-147.39;75.26
3524;BME280;1776;53.330;11.498;2022-09-27T09:20:37;53980.03;;;-147.39;75.19
3524;BME280;1776;53.330;11.498;2022-09-27T09:23:29;53957.50;;;-147.39;74.66
3524;BME280;1776;53.330;11.498;2022-09-27T09:26:00;53990.28;;;-147.39;73.87
3524;BME280;1776;53.330;11.498;2022-09-27T09:31:37;53980.03;;;-147.39;73.28
3524;BME280;1776;53.330;11.498;2022-09-27T09:34:27;53945.19;;;-147.39;73.31
3524;BME280;1776;53.330;11.498;2022-09-27T09:37:01;53982.06;;;-147.39;73.29
3524;BME280;1776;53.330;11.498;2022-09-27T09:42:28;53980.03;;;-147.39;73.15
3524;BME280;1776;53.330;11.498;2022-09-27T09:45:01;53990.28;;;-147.39;73.09
3524;BME280;1776;53.330;11.498;2022-09-27T09:47:35;53955.44;;;-147.39;72.51
3524;BME280;1776;53.330;11.498;2022-09-27T09:50:19;53957.50;;;-147.39;72.41
3524;BME280;1776;53.330;11.498;2022-09-27T09:53:16;53943.16;;;-147.39;72.06
3524;BME280;1776;53.330;11.498;2022-09-27T09:55:49;53961.59;;;-147.39;72.41
3524;BME280;1776;53.330;11.498;2022-09-27T09:58:27;53971.84;;;-147.39;71.81
3524;BME280;1776;53.330;11.498;2022-09-27T10:00:59;53947.25;;;-147.39;71.46
3524;BME280;1776;53.330;11.498;2022-09-27T10:03:34;53947.25;;;-147.39;70.78
3524;BME280;1776;53.330;11.498;2022-09-27T10:06:00;53982.06;;;-147.39;70.65
3524;BME280;1776;53.330;11.498;2022-09-27T10:08:25;53965.69;;;-147.39;70.45
3524;BME280;1776;53.330;11.498;2022-09-27T10:10:50;53959.53;;;-147.39;70.64
3524;BME280;1776;53.330;11.498;2022-09-27T10:13:18;53932.91;;;-147.39;70.72
3524;BME280;1776;53.330;11.498;2022-09-27T10:15:53;53939.06;;;-147.39;70.58
3524;BME280;1776;53.330;11.498;2022-09-27T10:18:23;53963.63;;;-147.39;70.33
3524;BME280;1776;53.330;11.498;2022-09-27T10:21:05;53980.03;;;-147.39;70.43
3524;BME280;1776;53.330;11.498;2022-09-27T10:23:31;53971.84;;;-147.39;70.47
3524;BME280;1776;53.330;11.498;2022-09-27T10:25:58;54080.41;;;-147.39;70.74
3524;BME280;1776;53.330;11.498;2022-09-27T10:28:36;53926.75;;;-147.39;71.07
3524;BME280;1776;53.330;11.498;2022-09-27T10:31:07;53986.19;;;-147.39;71.27
3524;BME280;1776;53.330;11.498;2022-09-27T10:33:36;53951.34;;;-147.39;71.14
3524;BME280;1776;53.330;11.498;2022-09-27T10:36:02;53955.44;;;-147.39;71.58
3524;BME280;1776;53.330;11.498;2022-09-27T10:38:35;53969.78;;;-147.39;71.54
3524;BME280;1776;53.330;11.498;2022-09-27T10:41:16;53959.53;;;-147.39;71.50
3524;BME280;1776;53.330;11.498;2022-09-27T10:43:45;53965.69;;;-147.39;71.25
3524;BME280;1776;53.330;11.498;2022-09-27T10:46:30;53934.97;;;-147.39;71.08
3524;BME280;1776;53.330;11.498;2022-09-27T10:51:40;53928.81;;;-147.39;70.10
3524;BME280;1776;53.330;11.498;2022-09-27T10:54:17;53912.41;;;-147.39;70.13
3524;BME280;1776;53.330;11.498;2022-09-27T10:56:43;53934.97;;;-147.39;69.99
3524;BME280;1776;53.330;11.498;2022-09-27T10:59:17;53951.34;;;-147.39;69.90
3524;BME280;1776;53.330;11.498;2022-09-27T11:01:44;53953.41;;;-147.39;69.67
3524;BME280;1776;53.330;11.498;2022-09-27T11:04:24;53977.97;;;-147.39;69.19
3524;BME280;1776;53.330;11.498;2022-09-27T11:06:50;54117.31;;;-147.39;69.78
3524;BME280;1776;53.330;11.498;2022-09-27T11:09:22;53967.72;;;-147.39;69.54
3524;BME280;1776;53.330;11.498;2022-09-27T11:12:05;53977.97;;;-147.39;69.44
3524;BME280;1776;53.330;11.498;2022-09-27T11:14:30;53943.16;;;-147.39;69.02
3524;BME280;1776;53.330;11.498;2022-09-27T11:17:09;53957.50;;;-147.39;68.23
3524;BME280;1776;53.330;11.498;2022-09-27T11:19:51;53924.72;;;-147.39;68.31
3524;BME280;1776;53.330;11.498;2022-09-27T11:30:22;53963.63;;;-147.39;67.05
3524;BME280;1776;53.330;11.498;2022-09-27T11:33:10;53924.72;;;-147.39;69.00
3524;BME280;1776;53.330;11.498;2022-09-27T11:35:51;53920.63;;;-147.39;67.70
3524;BME280;1776;53.330;11.498;2022-09-27T11:41:18;53969.78;;;-147.39;64.24
3524;BME280;1776;53.330;11.498;2022-09-27T11:44:00;53959.53;;;-147.39;66.03
3524;BME280;1776;53.330;11.498;2022-09-27T11:46:31;53957.50;;;-147.39;66.44
3524;BME280;1776;53.330;11.498;2022-09-27T11:52:07;53928.81;;;-147.39;67.69
3524;BME280;1776;53.330;11.498;2022-09-27T12:05:35;53947.25;;;-147.39;68.28
3524;BME280;1776;53.330;11.498;2022-09-27T12:08:22;54121.41;;;-147.39;68.52
3524;BME280;1776;53.330;11.498;2022-09-27T12:10:57;53965.69;;;-147.39;68.24
3524;BME280;1776;53.330;11.498;2022-09-27T12:13:35;53937.00;;;-147.39;68.08
3524;BME280;1776;53.330;11.498;2022-09-27T12:16:02;53945.19;;;-147.39;67.75
3524;BME280;1776;53.330;11.498;2022-09-27T12:18:31;53934.97;;;-147.39;67.39
3524;BME280;1776;53.330;11.498;2022-09-27T12:21:03;53959.53;;;-147.39;67.32
3524;BME280;1776;53.330;11.498;2022-09-27T12:23:38;53945.19;;;-147.39;67.31
3524;BME280;1776;53.330;11.498;2022-09-27T12:26:09;53926.75;;;-147.39;67.42
3524;BME280;1776;53.330;11.498;2022-09-27T12:28:48;53996.41;;;-147.39;67.14
3524;BME280;1776;53.330;11.498;2022-09-27T12:31:26;53947.25;;;-147.39;67.23
3524;BME280;1776;53.330;11.498;2022-09-27T12:34:01;53996.41;;;-147.39;66.47
3524;BME280;1776;53.330;11.498;2022-09-27T12:36:33;53971.84;;;-147.39;67.24
3524;BME280;1776;53.330;11.498;2022-09-27T12:39:31;53973.88;;;-147.39;66.23
3524;BME280;1776;53.330;11.498;2022-09-27T12:42:16;53971.84;;;-147.39;66.01
3524;BME280;1776;53.330;11.498;2022-09-27T12:44:44;53957.50;;;-147.39;66.29
3524;BME280;1776;53.330;11.498;2022-09-27T12:47:43;53965.69;;;-147.39;66.64
3524;BME280;1776;53.330;11.498;2022-09-27T12:50:35;53988.22;;;-147.39;66.72
3524;BME280;1776;53.330;11.498;2022-09-27T12:53:13;53965.69;;;-147.39;67.62
3524;BME280;1776;53.330;11.498;2022-09-27T12:55:54;53963.63;;;-147.39;68.17
3524;BME280;1776;53.330;11.498;2022-09-27T13:01:31;53969.78;;;-147.39;69.42
3524;BME280;1776;53.330;11.498;2022-09-27T13:10:08;53992.31;;;-147.39;70.46
3524;BME280;1776;53.330;11.498;2022-09-27T13:12:36;53920.63;;;-147.39;70.83
3524;BME280;1776;53.330;11.498;2022-09-27T13:15:22;53971.84;;;-147.39;70.68
3524;BME280;1776;53.330;11.498;2022-09-27T13:18:00;53953.41;;;-147.39;71.02
3524;BME280;1776;53.330;11.498;2022-09-27T13:23:00;53975.94;;;-147.39;70.77
3524;BME280;1776;53.330;11.498;2022-09-27T13:25:57;53955.44;;;-147.39;71.13
3524;BME280;1776;53.330;11.498;2022-09-27T13:30:53;53961.59;;;-147.39;71.63
3524;BME280;1776;53.330;11.498;2022-09-27T13:33:27;53965.69;;;-147.39;71.33
3524;BME280;1776;53.330;11.498;2022-09-27T13:44:18;53959.53;;;-147.39;71.36
3524;BME280;1776;53.330;11.498;2022-09-27T13:47:30;53988.22;;;-147.39;71.33
3524;BME280;1776;53.330;11.498;2022-09-27T13:50:24;53975.94;;;-147.39;71.55
3524;BME280;1776;53.330;11.498;2022-09-27T13:53:02;53980.03;;;-147.39;71.24
3524;BME280;1776;53.330;11.498;2022-09-27T13:55:42;53959.53;;;-147.39;71.13
3524;BME280;1776;53.330;11.498;2022-09-27T13:58:16;53977.97;;;-147.39;71.19
3524;BME280;1776;53.330;11.498;2022-09-27T14:00:53;53982.06;;;-147.39;71.21
3524;BME280;1776;53.330;11.498;2022-09-27T14:03:27;53984.13;;;-147.39;71.01
3524;BME280;1776;53.330;11.498;2022-09-27T14:05:59;53947.25;;;-147.39;71.13
3524;BME280;1776;53.330;11.498;2022-09-27T14:08:34;53969.78;;;-147.39;71.02
3524;BME280;1776;53.330;11.498;2022-09-27T14:11:02;53939.06;;;-147.39;70.75
3524;BME280;1776;53.330;11.498;2022-09-27T14:13:29;53971.84;;;-147.39;71.35
3524;BME280;1776;53.330;11.498;2022-09-27T14:15:58;53947.25;;;-147.39;70.98
3524;BME280;1776;53.330;11.498;2022-09-27T14:18:26;53994.38;;;-147.39;71.40
3524;BME280;1776;53.330;11.498;2022-09-27T14:21:48;53986.19;;;-147.39;71.47
3524;BME280;1776;53.330;11.498;2022-09-27T14:24:19;53977.97;;;-147.39;71.89
3524;BME280;1776;53.330;11.498;2022-09-27T14:26:45;53971.84;;;-147.39;72.45
3524;BME280;1776;53.330;11.498;2022-09-27T14:29:20;53994.38;;;-147.39;73.03
3524;BME280;1776;53.330;11.498;2022-09-27T14:31:46;53998.47;;;-147.39;73.37
3524;BME280;1776;53.330;11.498;2022-09-27T14:34:13;54010.75;;;-147.39;73.66
3524;BME280;1776;53.330;11.498;2022-09-27T14:36:39;53984.13;;;-147.39;73.91